Time;durP1;ratioP1;P1;durP2;ratioP2;P2;SDS_P1;SDS_P2;PMS_P1;PMS_P2;Temp;Humidity;BMP_temperature;BMP_pressure;BME280_temperature;BME280_humidity;BME280_pressure;Samples;Min_cycle;Max_cycle;Signal;HPM_P1;HPM_P2
2024/01/21 00:00:52;;;;;;;7.70;2.50;;;;;;;-0.43;100.00;102175.41;7326655;19;20207;-40
2024/01/21 00:03:22;;;;;;;21.65;6.68;;;;;;;-0.47;100.00;102169.09;7346591;19;20186;-37
2024/01/21 00:05:51;;;;;;;37.35;9.70;;;;;;;-0.43;100.00;102153.47;7326542;19;20200;-41
2024/01/21 00:08:21;;;;;;;5.22;2.03;;;;;;;-0.42;100.00;102145.13;7347580;19;20194;-37
2024/01/21 00:10:51;;;;;;;8.50;2.90;;;;;;;-0.41;100.00;102140.97;7326405;19;20214;-37
2024/01/21 00:13:24;;;;;;;3.33;1.60;;;;;;;-0.36;100.00;102137.28;7347312;19;20221;-38
2024/01/21 00:15:53;;;;;;;23.58;7.80;;;;;;;-0.34;100.00;102132.38;7326368;19;20190;-38
2024/01/21 00:18:23;;;;;;;12.32;5.18;;;;;;;-0.26;100.00;102136.63;7347443;19;20249;-38
2024/01/21 00:20:53;;;;;;;7.72;3.47;;;;;;;-0.33;100.00;102124.03;7325890;19;20742;-38
2024/01/21 00:23:22;;;;;;;14.30;4.40;;;;;;;-0.30;100.00;102124.38;7347009;19;20580;-38
2024/01/21 00:25:52;;;;;;;8.75;3.22;;;;;;;-0.25;100.00;102113.09;7325960;19;20988;-39
2024/01/21 00:28:24;;;;;;;7.22;3.08;;;;;;;-0.23;100.00;102096.38;7346138;19;20190;-39
2024/01/21 00:30:54;;;;;;;23.60;7.60;;;;;;;-0.23;100.00;102101.47;7326236;19;20700;-37
2024/01/21 00:33:24;;;;;;;17.20;5.45;;;;;;;-0.23;100.00;102101.47;7347126;19;20187;-38
2024/01/21 00:35:53;;;;;;;16.70;5.47;;;;;;;-0.18;100.00;102097.78;7325611;19;20213;-38
2024/01/21 00:38:23;;;;;;;8.27;3.05;;;;;;;-0.22;100.00;102090.56;7346425;19;20194;-40
2024/01/21 00:40:53;;;;;;;12.75;3.83;;;;;;;-0.23;100.00;102088.78;7325237;19;20277;-38
2024/01/21 00:43:25;;;;;;;77.55;21.85;;;;;;;-0.14;100.00;102092.28;7350420;19;20637;-37
2024/01/21 00:45:55;;;;;;;25.27;9.18;;;;;;;-0.12;100.00;102084.84;7333559;19;20246;-38
2024/01/21 00:48:24;;;;;;;8.85;2.95;;;;;;;-0.22;100.00;102082.03;7348186;19;20194;-36
2024/01/21 00:50:54;;;;;;;4.88;2.65;;;;;;;-0.26;100.00;102074.88;7353998;19;20206;-39
2024/01/21 00:53:24;;;;;;;9.40;3.33;;;;;;;-0.25;100.00;102075.03;7353688;19;20221;-38
2024/01/21 00:55:53;;;;;;;7.85;2.85;;;;;;;-0.24;100.00;102068.31;7332492;19;20202;-37
2024/01/21 00:58:26;;;;;;;13.93;4.85;;;;;;;-0.19;100.00;102063.00;7352854;19;20274;-37
2024/01/21 01:00:56;;;;;;;7.15;2.95;;;;;;;-0.23;100.00;102065.94;7331768;19;20226;-38
2024/01/21 01:03:26;;;;;;;9.20;3.65;;;;;;;-0.23;100.00;102072.63;7329167;19;20194;-38
2024/01/21 01:05:56;;;;;;;5.35;1.92;;;;;;;-0.24;100.00;102064.16;7354173;19;20607;-37
2024/01/21 01:08:26;;;;;;;12.15;4.15;;;;;;;-0.18;100.00;102059.72;7334406;19;20230;-41
2024/01/21 01:10:55;;;;;;;9.60;4.70;;;;;;;-0.26;100.00;102057.09;7353521;19;20227;-38
2024/01/21 01:13:28;;;;;;;10.43;3.17;;;;;;;-0.27;100.00;102051.13;7342139;19;20207;-37
2024/01/21 01:15:57;;;;;;;27.48;8.80;;;;;;;-0.14;100.00;102061.81;7353019;19;20190;-38
2024/01/21 01:18:27;;;;;;;18.48;7.13;;;;;;;-0.14;100.00;102061.81;7330548;19;20559;-39
2024/01/21 01:20:57;;;;;;;9.48;2.80;;;;;;;-0.23;100.00;102050.72;7352414;19;20676;-37
2024/01/21 01:23:28;;;;;;;5.82;1.80;;;;;;;-0.22;100.00;102041.44;7330651;19;20540;-37
2024/01/21 01:25:58;;;;;;;3.05;1.00;;;;;;;-0.28;100.00;102044.25;7352526;19;20589;-42
2024/01/21 01:28:31;;;;;;;9.00;3.00;;;;;;;-0.17;100.00;102043.75;7330406;19;20269;-38
2024/01/21 01:31:01;;;;;;;6.13;1.90;;;;;;;-0.23;100.00;102040.56;7352739;19;20271;-37
2024/01/21 01:33:31;;;;;;;5.10;1.50;;;;;;;-0.20;100.00;102032.38;7330636;19;20202;-42
2024/01/21 01:36:01;;;;;;;6.30;1.95;;;;;;;-0.21;100.00;102039.09;7351978;19;20276;-39
2024/01/21 01:38:30;;;;;;;3.50;1.20;;;;;;;-0.11;100.00;102029.91;7329986;19;20194;-38
2024/01/21 01:41:00;;;;;;;7.35;2.25;;;;;;;-0.07;100.00;102024.41;7352609;19;20229;-39
2024/01/21 01:43:32;;;;;;;8.75;3.33;;;;;;;-0.05;100.00;102020.41;7328179;19;20251;-39
2024/01/21 01:46:02;;;;;;;4.88;2.15;;;;;;;-0.09;100.00;102013.22;7351660;19;20190;-40
2024/01/21 01:48:33;;;;;;;16.33;3.70;;;;;;;-0.05;100.00;102007.72;7328548;19;20222;-38
2024/01/21 01:51:04;;;;;;;8.45;2.63;;;;;;;-0.07;100.00;101996.50;7352247;19;20205;-40
2024/01/21 01:53:36;;;;;;;6.68;2.10;;;;;;;-0.04;100.00;101987.56;7327745;19;20594;-38
2024/01/21 01:56:06;;;;;;;11.20;3.92;;;;;;;0.02;100.00;101987.31;7351899;19;20194;-39
2024/01/21 01:58:40;;;;;;;6.82;2.45;;;;;;;-0.04;100.00;101984.16;7330042;19;20197;-38
2024/01/21 02:01:10;;;;;;;38.77;13.30;;;;;;;0.06;100.00;101997.03;7351592;19;20196;-38
2024/01/21 02:03:40;;;;;;;12.30;4.22;;;;;;;0.07;100.00;101986.16;7320685;19;20925;-38
2024/01/21 02:06:10;;;;;;;18.90;6.00;;;;;;;0.06;100.00;101978.38;7349750;19;20192;-39
2024/01/21 02:08:39;;;;;;;6.37;3.00;;;;;;;0.04;100.00;101970.59;7328417;19;20186;-38
2024/01/21 02:11:09;;;;;;;31.13;10.07;;;;;;;0.10;100.00;101978.84;7350803;19;20430;-40
2024/01/21 02:13:41;;;;;;;9.13;2.88;;;;;;;0.08;100.00;101969.28;7327362;19;20186;-38
2024/01/21 02:16:10;;;;;;;9.70;4.73;;;;;;;0.12;100.00;101979.91;7350492;19;21057;-37
2024/01/21 02:18:41;;;;;;;12.70;4.72;;;;;;;0.28;100.00;101999.28;7328926;19;21050;-38
2024/01/21 02:21:11;;;;;;;9.93;3.50;;;;;;;0.28;100.00;101961.19;7350287;19;20272;-38
2024/01/21 02:23:43;;;;;;;10.55;3.35;;;;;;;0.30;100.00;101958.81;7328844;19;20583;-41
2024/01/21 02:26:13;;;;;;;8.57;3.53;;;;;;;0.26;100.00;101955.94;7349591;19;20194;-40
2024/01/21 02:28:42;;;;;;;12.60;2.57;;;;;;;0.17;100.00;101956.63;7328276;19;20270;-38
2024/01/21 02:31:12;;;;;;;11.05;3.88;;;;;;;0.23;100.00;101967.44;7348890;19;21002;-40
2024/01/21 02:33:41;;;;;;;4.27;2.20;;;;;;;0.19;100.00;101970.38;7328357;19;20191;-38
2024/01/21 02:36:11;;;;;;;19.92;6.95;;;;;;;0.17;100.00;101964.25;7349132;19;20423;-40
2024/01/21 02:38:44;;;;;;;27.23;8.65;;;;;;;0.19;100.00;101967.84;7327530;19;20202;-39
2024/01/21 02:41:13;;;;;;;7.05;2.30;;;;;;;0.28;100.00;101986.56;7350215;19;20279;-38
2024/01/21 02:43:43;;;;;;;5.18;2.25;;;;;;;0.27;100.00;101977.16;7326379;19;20598;-37
2024/01/21 02:46:12;;;;;;;11.63;4.23;;;;;;;0.15;100.00;101965.75;7349193;19;20202;-39
2024/01/21 02:48:42;;;;;;;8.40;2.60;;;;;;;0.16;100.00;101967.53;7327000;19;21304;-38
2024/01/21 02:51:15;;;;;;;11.37;4.13;;;;;;;0.12;100.00;101969.75;7349062;19;20194;-38
2024/01/21 02:53:47;;;;;;;6.57;2.50;;;;;;;0.10;100.00;101966.16;7328420;19;20492;-39
2024/01/21 02:56:23;;;;;;;5.68;2.60;;;;;;;0.01;100.00;101954.16;7349419;19;20524;-39
2024/01/21 02:58:52;;;;;;;6.10;2.00;;;;;;;-0.08;100.00;101949.94;7328392;19;20237;-39
2024/01/21 03:01:22;;;;;;;4.18;2.03;;;;;;;-0.17;100.00;101944.81;7349131;19;20505;-37
2024/01/21 03:03:52;;;;;;;11.70;2.63;;;;;;;0.06;100.00;101968.22;7326600;19;20236;-37
2024/01/21 03:06:22;;;;;;;15.27;4.97;;;;;;;-0.01;100.00;101954.91;7348556;19;20556;-38
2024/01/21 03:08:54;;;;;;;7.90;3.00;;;;;;;-0.09;100.00;101938.00;7327799;19;20839;-37
2024/01/21 03:11:24;;;;;;;5.17;2.00;;;;;;;0.06;100.00;101981.81;7348497;19;20498;-38
2024/01/21 03:13:53;;;;;;;7.00;3.13;;;;;;;0.10;100.00;101963.63;7327995;19;20453;-38
2024/01/21 03:16:23;;;;;;;31.45;11.18;;;;;;;0.16;100.00;101980.22;7348742;19;20552;-37
2024/01/21 03:18:53;;;;;;;12.48;4.85;;;;;;;-0.01;100.00;101969.22;7328382;19;20569;-42
2024/01/21 03:21:23;;;;;;;22.20;8.32;;;;;;;-0.05;100.00;101975.63;7349493;19;20190;-40
2024/01/21 03:23:55;;;;;;;13.13;4.95;;;;;;;-0.25;100.00;101973.56;7328103;19;20198;-39
2024/01/21 03:26:25;;;;;;;5.70;2.70;;;;;;;-0.41;100.00;101959.25;7346723;19;20269;-35
2024/01/21 03:28:54;;;;;;;7.50;2.38;;;;;;;-0.38;100.00;101957.75;7348026;19;20586;-37
2024/01/21 03:31:24;;;;;;;17.42;6.20;;;;;;;-0.48;100.00;101977.09;7349304;19;20203;-39
2024/01/21 03:33:53;;;;;;;8.75;3.53;;;;;;;-0.43;100.00;101955.66;7328718;19;20215;-37
2024/01/21 03:36:23;;;;;;;10.60;3.70;;;;;;;-0.46;100.00;101950.25;7348512;19;20189;-37
2024/01/21 03:38:55;;;;;;;7.28;2.70;;;;;;;-0.50;100.00;101950.69;7327450;19;20224;-40
2024/01/21 03:41:25;;;;;;;21.17;7.70;;;;;;;-0.46;100.00;101950.25;7341586;19;20194;-37
2024/01/21 03:43:56;;;;;;;5.45;2.80;;;;;;;-0.45;100.00;101926.69;7347877;19;20220;-38
2024/01/21 03:46:26;;;;;;;12.52;4.47;;;;;;;-0.37;100.00;101950.31;7334169;19;20190;-37
2024/01/21 03:48:56;;;;;;;29.23;8.98;;;;;;;-0.42;100.00;101921.03;7348301;19;20200;-37
2024/01/21 03:51:25;;;;;;;15.65;4.72;;;;;;;-0.42;100.00;101927.03;7338053;19;20198;-36
2024/01/21 03:53:58;;;;;;;19.70;6.75;;;;;;;-0.34;100.00;101926.91;7348116;19;20194;-38
2024/01/21 03:56:27;;;;;;;27.17;7.40;;;;;;;-0.32;100.00;101912.75;7325546;19;20270;-39
2024/01/21 03:58:57;;;;;;;9.65;3.22;;;;;;;-0.24;100.00;101916.09;7346605;19;20268;-37
2024/01/21 04:01:26;;;;;;;7.00;2.72;;;;;;;-0.28;100.00;101895.50;7328763;19;20200;-37
2024/01/21 04:03:56;;;;;;;17.73;5.22;;;;;;;-0.28;100.00;101909.81;7346355;19;20333;-38
2024/01/21 04:06:26;;;;;;;11.13;3.13;;;;;;;-0.42;100.00;101881.38;7332632;19;20198;-39
2024/01/21 04:08:58;;;;;;;5.85;2.30;;;;;;;-0.32;100.00;101877.25;7347365;19;20195;-37
2024/01/21 04:11:28;;;;;;;9.55;2.85;;;;;;;-0.30;100.00;101865.63;7325952;19;20681;-38
2024/01/21 04:13:57;;;;;;;5.53;2.47;;;;;;;-0.37;100.00;101848.00;7347781;19;20266;-39
2024/01/21 04:16:27;;;;;;;8.68;3.00;;;;;;;-0.34;100.00;101845.75;7324199;19;20189;-38
2024/01/21 04:18:57;;;;;;;33.22;8.27;;;;;;;-0.20;100.00;101868.34;7354160;19;20198;-37
2024/01/21 04:21:26;;;;;;;6.68;2.60;;;;;;;-0.29;100.00;101831.91;7334107;19;20663;-38
2024/01/21 04:23:59;;;;;;;6.32;2.60;;;;;;;-0.32;100.00;101807.13;7354630;19;20198;-38
2024/01/21 04:26:29;;;;;;;12.27;5.55;;;;;;;-0.19;100.00;101839.75;7331306;19;20265;-37
2024/01/21 04:28:58;;;;;;;11.77;5.22;;;;;;;-0.23;100.00;101817.31;7352933;19;20198;-38
2024/01/21 04:31:28;;;;;;;17.85;6.03;;;;;;;-0.19;100.00;101816.00;7332134;19;20263;-39
2024/01/21 04:33:57;;;;;;;6.97;2.92;;;;;;;-0.27;100.00;101769.53;7354130;19;20205;-38
2024/01/21 04:36:27;;;;;;;6.00;2.72;;;;;;;-0.24;100.00;101774.03;7331515;19;20197;-38
2024/01/21 04:38:59;;;;;;;8.43;3.03;;;;;;;-0.21;100.00;101780.31;7352834;19;20194;-37
2024/01/21 04:41:29;;;;;;;10.40;2.90;;;;;;;-0.30;100.00;101787.00;7332255;19;20257;-37
2024/01/21 04:44:00;;;;;;;8.30;2.88;;;;;;;-0.18;100.00;101846.59;7352188;19;20201;-38
2024/01/21 04:46:29;;;;;;;23.92;7.50;;;;;;;-0.28;100.00;101821.03;7331051;19;20276;-38
2024/01/21 04:48:59;;;;;;;31.30;9.43;;;;;;;-0.30;100.00;101819.97;7352811;19;20202;-39
2024/01/21 04:51:28;;;;;;;12.73;2.47;;;;;;;-0.41;100.00;101813.81;7331562;19;20211;-37
2024/01/21 04:54:01;;;;;;;6.07;2.40;;;;;;;-0.45;100.00;101794.81;7353684;19;20191;-37
2024/01/21 04:56:30;;;;;;;9.65;3.85;;;;;;;-0.34;100.00;101807.72;7330677;19;20187;-40
2024/01/21 04:59:00;;;;;;;7.35;3.03;;;;;;;-0.39;100.00;101806.34;7353228;19;20195;-40
2024/01/21 05:01:30;;;;;;;13.00;4.00;;;;;;;-0.33;100.00;101814.56;7329966;19;20691;-39
2024/01/21 05:04:00;;;;;;;8.38;2.72;;;;;;;-0.49;100.00;101790.19;7352422;19;20198;-37
2024/01/21 05:06:29;;;;;;;34.15;8.80;;;;;;;-0.45;100.00;101820.16;7330225;19;20198;-37
2024/01/21 05:09:02;;;;;;;9.63;3.25;;;;;;;-0.45;100.00;101806.59;7352821;19;20209;-37
2024/01/21 05:11:32;;;;;;;5.32;2.55;;;;;;;-0.53;100.00;101795.66;7331290;19;20204;-41
2024/01/21 05:14:02;;;;;;;13.80;5.35;;;;;;;-0.39;100.00;101807.25;7353193;19;20205;-39
2024/01/21 05:16:31;;;;;;;21.35;7.28;;;;;;;-0.35;100.00;101798.31;7327959;19;20730;-38
2024/01/21 05:19:01;;;;;;;7.75;2.90;;;;;;;-0.31;100.00;101770.88;7349482;19;20202;-39
2024/01/21 05:21:30;;;;;;;8.70;2.55;;;;;;;-0.30;100.00;101754.03;7328020;19;20267;-38
2024/01/21 05:24:03;;;;;;;9.32;3.33;;;;;;;-0.27;100.00;101749.25;7349579;19;20194;-38
2024/01/21 05:26:44;;;;;;;7.68;2.85;;;;;;;-0.07;100.00;101757.97;7327690;19;20193;-39
2024/01/21 05:29:14;;;;;;;21.33;7.90;;;;;;;-0.10;100.00;101750.06;7349461;19;20207;-38
2024/01/21 05:31:44;;;;;;;8.95;3.97;;;;;;;-0.08;100.00;101726.66;7328569;19;20588;-37
2024/01/21 05:34:14;;;;;;;17.30;5.93;;;;;;;0.00;100.00;101729.97;7349854;19;20277;-38
2024/01/21 05:36:44;;;;;;;6.88;2.70;;;;;;;0.09;100.00;101700.41;7327754;19;20198;-38
2024/01/21 05:39:16;;;;;;;9.27;3.00;;;;;;;0.11;100.00;101668.44;7349888;19;20621;-38
2024/01/21 05:41:46;;;;;;;7.22;3.05;;;;;;;0.23;100.00;101661.16;7330801;19;20196;-37
2024/01/21 05:44:15;;;;;;;5.37;1.80;;;;;;;0.22;100.00;101643.22;7350062;19;20197;-38
2024/01/21 05:46:45;;;;;;;4.68;2.25;;;;;;;0.20;100.00;101632.03;7327562;19;20385;-36
2024/01/21 05:49:14;;;;;;;5.23;2.13;;;;;;;0.25;100.00;101625.75;7351068;19;20211;-40
2024/01/21 05:51:44;;;;;;;5.38;2.30;;;;;;;0.35;100.00;101630.97;7330017;19;20412;-39
2024/01/21 05:54:16;;;;;;;7.07;2.50;;;;;;;0.37;100.00;101611.69;7350119;19;20198;-40
2024/01/21 05:56:46;;;;;;;21.57;7.37;;;;;;;0.47;100.00;101635.47;7327705;19;20398;-40
2024/01/21 05:59:16;;;;;;;9.03;3.80;;;;;;;0.47;100.00;101625.31;7349510;19;20433;-38
2024/01/21 06:01:46;;;;;;;12.67;4.53;;;;;;;0.46;100.00;101624.38;7327785;19;20462;-37
2024/01/21 06:04:16;;;;;;;6.57;2.37;;;;;;;0.45;100.00;101617.53;7347405;19;20411;-40
2024/01/21 06:06:46;;;;;;;23.30;7.07;;;;;;;0.52;100.00;101632.59;7326821;19;21704;-38
2024/01/21 06:09:21;;;;;;;26.17;7.87;;;;;;;0.52;100.00;101624.09;7348509;19;20207;-40
2024/01/21 06:11:50;;;;;;;18.00;6.17;;;;;;;0.56;100.00;101631.25;7327966;19;20817;-37
2024/01/21 06:14:20;;;;;;;4.00;1.57;;;;;;;0.51;100.00;101595.25;7349083;19;20439;-37
2024/01/21 06:16:49;;;;;;;6.60;2.40;;;;;;;0.59;100.00;101618.88;7329977;19;20402;-38
2024/01/21 06:19:19;;;;;;;5.37;1.67;;;;;;;0.51;100.00;101582.56;7348919;19;20446;-39
2024/01/21 06:21:49;;;;;;;5.73;2.17;;;;;;;0.47;100.00;101561.81;7327906;19;20405;-40
2024/01/21 06:24:21;;;;;;;5.25;2.45;;;;;;;0.45;100.00;101559.13;7348361;19;20473;-39
2024/01/21 06:26:54;;;;;;;9.95;3.55;;;;;;;0.50;100.00;101551.94;7327938;19;20210;-38
2024/01/21 06:29:23;;;;;;;7.80;2.50;;;;;;;0.63;100.00;101575.22;7349583;19;20201;-40
2024/01/21 06:31:53;;;;;;;3.83;1.37;;;;;;;0.56;100.00;101565.22;7328119;19;20205;-40
2024/01/21 06:34:23;;;;;;;16.35;4.25;;;;;;;0.53;100.00;101573.44;7350930;19;20532;-40
2024/01/21 06:36:52;;;;;;;3.65;1.70;;;;;;;0.53;100.00;101558.19;7329956;19;20223;-41
2024/01/21 06:39:24;;;;;;;16.85;5.63;;;;;;;0.50;100.00;101568.06;7350466;19;20230;-40
2024/01/21 06:41:54;;;;;;;6.90;2.63;;;;;;;0.37;100.00;101545.69;7329361;19;20216;-40
2024/01/21 06:44:24;;;;;;;11.93;4.03;;;;;;;0.38;100.00;101556.75;7349914;19;20424;-40
2024/01/21 06:46:53;;;;;;;6.83;1.87;;;;;;;0.42;100.00;101545.22;7329530;19;20208;-40
2024/01/21 06:49:23;;;;;;;8.70;3.07;;;;;;;0.40;100.00;101550.16;7350796;19;20894;-40
2024/01/21 06:51:56;;;;;;;7.17;2.80;;;;;;;0.43;100.00;101549.56;7329785;19;20939;-40
2024/01/21 06:54:28;;;;;;;4.27;1.87;;;;;;;0.32;100.00;101521.53;7345818;19;20827;-37
2024/01/21 06:56:58;;;;;;;7.97;2.83;;;;;;;0.44;100.00;101533.56;7350507;19;20790;-41
2024/01/21 06:59:27;;;;;;;5.60;1.65;;;;;;;0.42;100.00;101533.44;7328846;19;20427;-40
2024/01/21 07:01:57;;;;;;;13.47;4.30;;;;;;;0.39;100.00;101521.34;7351796;19;20212;-40
2024/01/21 07:04:26;;;;;;;4.70;2.00;;;;;;;0.38;100.00;101517.03;7334198;19;20443;-42
2024/01/21 07:06:56;;;;;;;3.50;1.70;;;;;;;0.42;100.00;101519.84;7351000;19;20487;-42
2024/01/21 07:09:29;;;;;;;9.98;3.25;;;;;;;0.36;100.00;101523.59;7342223;19;20406;-39
2024/01/21 07:11:58;;;;;;;6.57;2.20;;;;;;;0.39;100.00;101517.91;7350692;19;20281;-40
2024/01/21 07:14:33;;;;;;;9.73;3.17;;;;;;;0.41;100.00;101511.31;7328912;19;20455;-40
2024/01/21 07:17:03;;;;;;;4.88;1.90;;;;;;;0.47;100.00;101504.28;7350327;19;20205;-41
2024/01/21 07:19:32;;;;;;;9.43;2.87;;;;;;;0.48;100.00;101502.66;7328266;19;20196;-41
2024/01/21 07:22:02;;;;;;;6.78;2.88;;;;;;;0.47;100.00;101496.66;7349867;19;20977;-41
2024/01/21 07:24:35;;;;;;;8.63;3.90;;;;;;;0.41;100.00;101485.94;7328381;19;20197;-41
2024/01/21 07:27:05;;;;;;;6.35;2.22;;;;;;;0.37;100.00;101479.66;7350514;19;20391;-39
2024/01/21 07:29:34;;;;;;;2.25;0.82;;;;;;;0.31;100.00;101479.09;7328438;19;20203;-40
2024/01/21 07:32:04;;;;;;;6.10;1.63;;;;;;;0.40;100.00;101481.59;7350069;19;20210;-40
2024/01/21 07:34:34;;;;;;;10.52;3.30;;;;;;;0.45;100.00;101471.91;7328352;19;20415;-40
2024/01/21 07:37:04;;;;;;;4.57;2.20;;;;;;;0.40;99.98;101451.13;7349737;19;20252;-41
2024/01/21 07:39:36;;;;;;;4.10;1.30;;;;;;;0.34;99.59;101428.63;7327689;19;20452;-41
2024/01/21 07:42:06;;;;;;;5.53;1.95;;;;;;;0.50;100.00;101451.25;7350463;19;20434;-41
2024/01/21 07:44:36;;;;;;;10.20;2.67;;;;;;;0.58;100.00;101433.28;7327982;19;20201;-40
2024/01/21 07:47:05;;;;;;;7.93;2.80;;;;;;;0.52;100.00;101437.03;7349472;19;20234;-40
2024/01/21 07:49:36;;;;;;;5.77;2.20;;;;;;;0.50;100.00;101424.94;7327777;19;20463;-40
2024/01/21 07:52:06;;;;;;;8.07;2.47;;;;;;;0.58;100.00;101434.19;7350625;19;22000;-40
2024/01/21 07:54:38;;;;;;;4.50;2.05;;;;;;;0.59;99.69;101414.75;7334617;19;20448;-40
2024/01/21 07:57:08;;;;;;;9.98;2.28;;;;;;;0.66;99.25;101404.41;7356179;19;20193;-40
2024/01/21 07:59:38;;;;;;;4.17;1.60;;;;;;;0.55;97.94;101383.09;7334217;19;20233;-40
2024/01/21 08:02:08;;;;;;;4.70;1.27;;;;;;;0.56;98.82;101392.50;7356569;19;20436;-40
2024/01/21 08:04:38;;;;;;;4.10;2.00;;;;;;;0.63;99.06;101394.88;7333268;19;20427;-39
2024/01/21 08:07:08;;;;;;;4.80;1.70;;;;;;;0.63;98.74;101382.19;7355906;19;20258;-40
2024/01/21 08:09:40;;;;;;;7.43;2.03;;;;;;;0.60;98.61;101365.75;7334441;19;20506;-40
2024/01/21 08:12:10;;;;;;;4.83;2.03;;;;;;;0.64;98.47;101368.72;7353649;19;20220;-41
2024/01/21 08:14:40;;;;;;;7.03;1.90;;;;;;;0.70;98.79;101365.84;7327723;19;20430;-41
2024/01/21 08:17:09;;;;;;;4.43;1.73;;;;;;;0.58;98.31;101368.16;7355556;19;20970;-41
2024/01/21 08:19:39;;;;;;;8.73;3.40;;;;;;;0.61;98.33;101370.97;7331407;19;20510;-41
2024/01/21 08:22:09;;;;;;;6.20;2.27;;;;;;;0.64;98.52;101360.19;7355861;19;20990;-41
2024/01/21 08:24:42;;;;;;;44.03;12.45;;;;;;;0.81;100.00;101394.75;7334188;19;20419;-40
2024/01/21 08:27:11;;;;;;;4.60;2.10;;;;;;;0.78;97.50;101336.06;7354486;19;20222;-41
2024/01/21 08:29:41;;;;;;;11.77;4.30;;;;;;;0.84;97.01;101306.13;7333281;19;20499;-41
2024/01/21 08:32:11;;;;;;;9.18;3.38;;;;;;;0.77;96.58;101298.72;7353925;19;20431;-40
2024/01/21 08:34:41;;;;;;;14.93;5.37;;;;;;;0.89;100.00;101321.78;7330510;19;20194;-40
2024/01/21 08:37:10;;;;;;;8.63;2.13;;;;;;;0.86;97.10;101289.34;7353532;19;20997;-41
2024/01/21 08:39:43;;;;;;;5.35;1.95;;;;;;;0.90;98.26;101291.44;7332006;19;20429;-41
2024/01/21 08:42:19;;;;;;;6.70;2.07;;;;;;;0.86;97.63;101263.94;7353808;19;20202;-40
2024/01/21 08:44:49;;;;;;;6.37;2.30;;;;;;;0.97;100.00;101287.78;7330932;19;20394;-39
2024/01/21 08:47:18;;;;;;;11.60;3.93;;;;;;;1.04;99.75;101268.88;7352627;19;21275;-40
2024/01/21 08:49:48;;;;;;;3.20;1.20;;;;;;;0.91;97.81;101274.50;7332334;19;20403;-40
2024/01/21 08:52:18;;;;;;;9.30;3.57;;;;;;;0.89;98.27;101307.44;7354206;19;20430;-41
2024/01/21 08:54:50;;;;;;;6.53;2.90;;;;;;;0.94;98.67;101328.16;7330514;19;20403;-40
2024/01/21 08:57:20;;;;;;;20.73;5.53;;;;;;;1.00;98.45;101310.94;7353540;19;20791;-39
2024/01/21 08:59:51;;;;;;;4.63;1.93;;;;;;;1.08;97.30;101327.75;7332412;19;20406;-40
2024/01/21 09:02:20;;;;;;;5.73;2.03;;;;;;;1.11;96.55;101316.06;7353656;19;20436;-39
2024/01/21 09:04:50;;;;;;;8.10;3.10;;;;;;;1.16;96.42;101319.91;7330921;19;20448;-40
2024/01/21 09:07:20;;;;;;;4.17;1.53;;;;;;;1.24;95.75;101297.72;7353070;19;20427;-40
2024/01/21 09:09:52;;;;;;;11.27;3.00;;;;;;;1.32;96.03;101259.50;7332467;19;20399;-39
2024/01/21 09:12:22;;;;;;;4.70;2.20;;;;;;;1.38;95.44;101261.66;7353110;19;20427;-40
2024/01/21 09:14:51;;;;;;;10.57;3.93;;;;;;;1.45;95.58;101263.97;7332330;19;20398;-40
2024/01/21 09:17:21;;;;;;;10.23;2.60;;;;;;;1.49;94.44;101239.72;7353765;19;20476;-40
2024/01/21 09:19:51;;;;;;;4.60;2.07;;;;;;;1.55;93.62;101221.53;7332456;19;20423;-41
2024/01/21 09:22:20;;;;;;;15.87;2.83;;;;;;;1.64;94.68;101229.94;7353207;19;20420;-40
2024/01/21 09:24:53;;;;;;;6.27;1.80;;;;;;;1.64;93.60;101196.88;7331388;19;20403;-41
2024/01/21 09:27:23;;;;;;;15.47;6.20;;;;;;;1.75;93.81;101182.53;7352257;19;20423;-41
2024/01/21 09:29:52;;;;;;;5.43;1.77;;;;;;;1.77;92.79;101210.63;7332118;19;20789;-41
2024/01/21 09:32:22;;;;;;;3.30;1.07;;;;;;;1.85;92.18;101197.78;7351521;19;20443;-39
2024/01/21 09:34:51;;;;;;;3.77;1.30;;;;;;;1.91;91.85;101206.72;7329341;19;20399;-40
2024/01/21 09:37:21;;;;;;;5.53;2.33;;;;;;;1.95;91.75;101188.41;7352518;19;20432;-40
2024/01/21 09:39:53;;;;;;;4.20;1.70;;;;;;;2.01;91.47;101199.97;7330886;19;20462;-41
2024/01/21 09:42:23;;;;;;;5.73;2.03;;;;;;;2.08;91.44;101198.84;7352238;19;20984;-40
2024/01/21 09:44:53;;;;;;;14.93;2.63;;;;;;;2.11;91.79;101203.31;7330289;19;20928;-41
2024/01/21 09:47:23;;;;;;;12.53;2.70;;;;;;;2.16;92.27;101199.47;7351530;19;20427;-39
2024/01/21 09:49:53;;;;;;;4.20;1.67;;;;;;;2.22;90.30;101207.63;7331503;19;20387;-39
2024/01/21 09:52:23;;;;;;;3.70;1.33;;;;;;;2.19;91.12;101204.81;7351774;19;20447;-40
2024/01/21 09:54:55;;;;;;;3.70;1.40;;;;;;;2.20;91.15;101214.22;7331608;19;21020;-40
2024/01/21 09:57:25;;;;;;;4.87;2.23;;;;;;;2.27;91.43;101183.41;7351570;19;20440;-40
2024/01/21 09:59:55;;;;;;;4.00;2.27;;;;;;;2.33;90.68;101194.88;7331163;19;20871;-40
2024/01/21 10:02:25;;;;;;;3.60;1.17;;;;;;;2.33;91.13;101212.69;7352071;19;21042;-40
2024/01/21 10:04:55;;;;;;;12.67;2.20;;;;;;;2.37;90.78;101196.91;7329074;19;20441;-40
2024/01/21 10:07:25;;;;;;;2.67;1.10;;;;;;;2.45;91.00;101200.97;7351009;19;20549;-40
2024/01/21 10:09:58;;;;;;;5.33;1.37;;;;;;;2.40;90.96;101192.06;7331300;19;20375;-41
2024/01/21 10:12:28;;;;;;;10.60;3.90;;;;;;;2.54;90.26;101166.06;7329437;19;20431;-39
2024/01/21 10:14:57;;;;;;;13.57;5.57;;;;;;;2.62;92.08;101164.13;7349352;19;20470;-41
2024/01/21 10:17:28;;;;;;;4.80;2.00;;;;;;;2.51;90.17;101127.59;7329074;19;20456;-40
2024/01/21 10:20:00;;;;;;;7.40;2.37;;;;;;;2.54;89.65;101160.97;7351384;19;20399;-40
2024/01/21 10:22:30;;;;;;;7.20;2.10;;;;;;;2.52;90.72;101184.53;7329461;19;20546;-40
2024/01/21 10:25:03;;;;;;;7.00;1.43;;;;;;;2.53;89.97;101154.09;7351409;19;20400;-39
2024/01/21 10:27:32;;;;;;;3.10;1.00;;;;;;;2.51;90.53;101170.91;7328808;19;20423;-40
2024/01/21 10:30:03;;;;;;;4.23;1.77;;;;;;;2.49;90.27;101169.00;7351552;19;20407;-40
2024/01/21 10:32:34;;;;;;;5.80;1.00;;;;;;;2.52;90.17;101152.28;7327011;19;20422;-40
2024/01/21 10:35:06;;;;;;;3.37;1.10;;;;;;;2.49;90.17;101161.34;7351610;19;20474;-39
2024/01/21 10:37:41;;;;;;;8.27;1.40;;;;;;;2.47;91.41;101194.38;7328373;19;20431;-40
2024/01/21 10:40:14;;;;;;;13.00;4.23;;;;;;;2.53;92.22;101194.88;7351299;19;20493;-39
2024/01/21 10:42:45;;;;;;;3.40;1.17;;;;;;;2.49;91.89;101208.09;7328967;19;20479;-39
2024/01/21 10:45:15;;;;;;;9.50;2.23;;;;;;;2.45;91.41;101208.63;7348389;19;20429;-39
2024/01/21 10:47:45;;;;;;;5.97;1.60;;;;;;;2.47;91.43;101203.66;7327227;19;20440;-39
2024/01/21 10:50:15;;;;;;;4.33;1.63;;;;;;;2.46;91.56;101199.31;7349507;19;20458;-40
2024/01/21 10:52:46;;;;;;;3.40;1.60;;;;;;;2.40;92.39;101217.53;7328214;19;20438;-40
2024/01/21 10:55:19;;;;;;;5.90;1.43;;;;;;;2.36;91.93;101207.88;7350483;19;20429;-39
2024/01/21 10:57:50;;;;;;;8.73;3.13;;;;;;;2.36;92.78;101202.78;7327954;19;20405;-41
2024/01/21 11:00:21;;;;;;;2.70;1.17;;;;;;;2.35;92.61;101183.19;7349910;19;20409;-39
2024/01/21 11:03:20;;;;;;;4.77;1.97;;;;;;;2.36;92.55;101179.84;7328756;19;20694;-40
2024/01/21 11:05:50;;;;;;;4.17;2.00;;;;;;;2.33;93.47;101180.50;7328468;19;20382;-39
2024/01/21 11:08:21;;;;;;;8.40;2.30;;;;;;;2.38;93.34;101168.13;7349385;19;20435;-39
2024/01/21 11:11:00;;;;;;;3.00;1.23;;;;;;;2.40;93.76;101192.06;7325184;19;20837;-39
2024/01/21 11:13:46;;;;;;;3.50;1.20;;;;;;;2.38;93.95;101198.69;7326563;19;20443;-40
2024/01/21 11:16:36;;;;;;;8.40;2.87;;;;;;;2.42;94.42;101190.53;7349430;19;20424;-40
2024/01/21 11:19:07;;;;;;;5.90;2.00;;;;;;;2.42;93.64;101195.66;7329414;19;20564;-39
2024/01/21 11:21:41;;;;;;;3.20;1.50;;;;;;;2.42;93.78;101175.25;7327025;19;20419;-40
2024/01/21 11:24:13;;;;;;;6.20;2.57;;;;;;;2.43;94.27;101177.91;7349677;19;20428;-39
2024/01/21 11:26:48;;;;;;;3.20;1.03;;;;;;;2.46;94.69;101192.56;7326763;19;20498;-39
2024/01/21 11:29:25;;;;;;;7.53;2.20;;;;;;;2.50;94.90;101194.59;7348772;19;20846;-39
2024/01/21 11:31:55;;;;;;;3.50;1.50;;;;;;;2.49;94.56;101182.63;7327942;19;20402;-39
2024/01/21 11:34:25;;;;;;;11.87;4.47;;;;;;;2.50;94.65;101179.31;7348498;19;20427;-39
2024/01/21 11:36:55;;;;;;;4.93;2.00;;;;;;;2.52;95.54;101195.59;7327308;19;20398;-40